Portada
METAR-TAF:

METAR-TAF

Aeropuertos :

Mécheria, Argelia

latitud: 34-56N, longitud: 000-26W, altitud: 1149 m

Observación

El informe se hizo hace 46 minutos, a las 09:00 UTC
Viento 12 kt del oeste
Temperatura 9°C
Humedad 71%
Presión 1009 hPa
Visibilidad 10 km o más
Escasas nubes a una altura de 2600 ft
Nubes dispersas a una altura de 10000 ft

METAR: DAAY 190900Z 27012KT 9999 FEW026 SCT100 09/04 Q1009

Hora: 10:46 (09:46 UTC)

Pronóstico

El informe se hizo hace 1 hora y 46 minutos, a las 08:00 UTC
Pronóstico válido del 19 a las 09 UTC al 19 a las 18 UTC
Viento 14 kt del oeste
Visibilidad: 8000 m
Escasas nubes a una altura de 1000 ft
Nubes dispersas a una altura de 2600 ft
Temporalmente
del 19 a las 09 UTC al 19 a las 15 UTC
Viento 18 kt del suroeste

TAF: DAAY 190800Z 1909/1918 26014KT 8000 FEW010 SCT026 TEMPO 1909/1915 22018KT

Observaciones y pronósticos meteorológicos de más de 4000 aeropuertos (mensajes METAR y TAF).

Los puntos amarillos y rojos representan las estaciones disponibles.

Ponga el ratón en el punto deseado para ver el nombre de la estación.

Haga clic para ver las observaciones y los pronósticos meteorológicos.

Para cambiar el mapa : haga clic en los botones verdes con una cruz de color negro para hacer un zoom, en el botón verde con un guión para alejar o en las flechas verdes para mapas adyacentes.


METAR-TAF: